sensor_id;sensor_type;location;lat;lon;timestamp;temperature;humidity
2751;DHT22;1383;48.362;10.908;2023-06-04T00:02:10;16.10;30.80
2751;DHT22;1383;48.362;10.908;2023-06-04T00:04:37;16.10;30.70
2751;DHT22;1383;48.362;10.908;2023-06-04T00:07:05;16.10;30.70
2751;DHT22;1383;48.362;10.908;2023-06-04T00:09:31;16.00;30.60
2751;DHT22;1383;48.362;10.908;2023-06-04T00:11:58;16.00;30.60
2751;DHT22;1383;48.362;10.908;2023-06-04T00:14:25;15.90;30.80
2751;DHT22;1383;48.362;10.908;2023-06-04T00:16:52;15.80;31.10
2751;DHT22;1383;48.362;10.908;2023-06-04T00:19:19;15.80;31.30
2751;DHT22;1383;48.362;10.908;2023-06-04T00:21:46;15.80;31.20
2751;DHT22;1383;48.362;10.908;2023-06-04T00:24:13;15.80;31.20
2751;DHT22;1383;48.362;10.908;2023-06-04T00:26:41;15.80;31.10
2751;DHT22;1383;48.362;10.908;2023-06-04T00:29:08;15.80;31.00
2751;DHT22;1383;48.362;10.908;2023-06-04T00:31:35;15.70;30.90
2751;DHT22;1383;48.362;10.908;2023-06-04T00:34:05;15.70;31.30
2751;DHT22;1383;48.362;10.908;2023-06-04T00:36:32;15.70;31.30
2751;DHT22;1383;48.362;10.908;2023-06-04T00:38:59;15.60;31.40
2751;DHT22;1383;48.362;10.908;2023-06-04T00:41:26;15.70;31.50
2751;DHT22;1383;48.362;10.908;2023-06-04T00:43:53;15.70;31.30
2751;DHT22;1383;48.362;10.908;2023-06-04T00:46:25;15.70;31.40
2751;DHT22;1383;48.362;10.908;2023-06-04T00:48:53;15.60;31.50
2751;DHT22;1383;48.362;10.908;2023-06-04T00:51:22;15.50;31.60
2751;DHT22;1383;48.362;10.908;2023-06-04T00:53:50;15.40;32.10
2751;DHT22;1383;48.362;10.908;2023-06-04T00:56:17;15.40;32.30
2751;DHT22;1383;48.362;10.908;2023-06-04T00:58:45;15.40;32.20
2751;DHT22;1383;48.362;10.908;2023-06-04T01:04:04;15.40;32.20
2751;DHT22;1383;48.362;10.908;2023-06-04T01:06:43;15.40;32.50
2751;DHT22;1383;48.362;10.908;2023-06-04T01:09:11;15.30;32.50
2751;DHT22;1383;48.362;10.908;2023-06-04T01:11:38;15.30;32.60
2751;DHT22;1383;48.362;10.908;2023-06-04T01:14:07;15.30;32.80
2751;DHT22;1383;48.362;10.908;2023-06-04T01:16:49;15.30;32.80
2751;DHT22;1383;48.362;10.908;2023-06-04T01:25:16;15.30;33.20
2751;DHT22;1383;48.362;10.908;2023-06-04T01:27:48;15.30;33.00
2751;DHT22;1383;48.362;10.908;2023-06-04T01:30:23;15.30;33.10
2751;DHT22;1383;48.362;10.908;2023-06-04T01:32:51;15.30;33.50
2751;DHT22;1383;48.362;10.908;2023-06-04T01:35:20;15.30;34.10
2751;DHT22;1383;48.362;10.908;2023-06-04T01:37:47;15.30;33.50
2751;DHT22;1383;48.362;10.908;2023-06-04T01:40:15;15.30;33.50
2751;DHT22;1383;48.362;10.908;2023-06-04T01:42:42;15.30;33.40
2751;DHT22;1383;48.362;10.908;2023-06-04T01:45:10;15.30;33.50
2751;DHT22;1383;48.362;10.908;2023-06-04T01:47:37;15.40;33.60
2751;DHT22;1383;48.362;10.908;2023-06-04T01:50:05;15.40;33.30
2751;DHT22;1383;48.362;10.908;2023-06-04T01:52:39;15.40;33.00
2751;DHT22;1383;48.362;10.908;2023-06-04T01:55:09;15.40;32.90
2751;DHT22;1383;48.362;10.908;2023-06-04T01:57:36;15.40;33.00
2751;DHT22;1383;48.362;10.908;2023-06-04T02:00:03;15.30;33.10
2751;DHT22;1383;48.362;10.908;2023-06-04T02:02:31;15.40;33.20
2751;DHT22;1383;48.362;10.908;2023-06-04T02:04:58;15.40;33.10
2751;DHT22;1383;48.362;10.908;2023-06-04T02:07:25;15.40;33.20
2751;DHT22;1383;48.362;10.908;2023-06-04T02:09:52;15.40;33.40
2751;DHT22;1383;48.362;10.908;2023-06-04T02:12:19;15.30;33.20
2751;DHT22;1383;48.362;10.908;2023-06-04T02:14:48;15.30;33.40
2751;DHT22;1383;48.362;10.908;2023-06-04T02:17:14;15.20;33.90
2751;DHT22;1383;48.362;10.908;2023-06-04T02:19:43;15.20;34.10
2751;DHT22;1383;48.362;10.908;2023-06-04T02:22:18;15.20;34.50
2751;DHT22;1383;48.362;10.908;2023-06-04T02:24:46;15.20;34.50
2751;DHT22;1383;48.362;10.908;2023-06-04T02:27:14;15.20;34.60
2751;DHT22;1383;48.362;10.908;2023-06-04T02:29:42;15.20;34.50
2751;DHT22;1383;48.362;10.908;2023-06-04T02:32:09;15.10;34.80
2751;DHT22;1383;48.362;10.908;2023-06-04T02:34:36;15.00;34.70
2751;DHT22;1383;48.362;10.908;2023-06-04T02:37:05;15.10;35.10
2751;DHT22;1383;48.362;10.908;2023-06-04T02:39:32;15.10;35.00
2751;DHT22;1383;48.362;10.908;2023-06-04T02:41:59;15.10;35.10
2751;DHT22;1383;48.362;10.908;2023-06-04T02:44:26;15.10;35.10
2751;DHT22;1383;48.362;10.908;2023-06-04T02:46:53;15.00;34.70
2751;DHT22;1383;48.362;10.908;2023-06-04T02:49:20;15.00;35.20
2751;DHT22;1383;48.362;10.908;2023-06-04T02:51:46;15.00;35.20
2751;DHT22;1383;48.362;10.908;2023-06-04T02:54:13;14.90;35.10
2751;DHT22;1383;48.362;10.908;2023-06-04T02:56:40;14.80;35.40
2751;DHT22;1383;48.362;10.908;2023-06-04T02:59:07;14.70;35.60
2751;DHT22;1383;48.362;10.908;2023-06-04T03:01:39;14.70;35.90
2751;DHT22;1383;48.362;10.908;2023-06-04T03:04:06;14.70;36.00
2751;DHT22;1383;48.362;10.908;2023-06-04T03:06:37;14.80;35.90
2751;DHT22;1383;48.362;10.908;2023-06-04T03:09:07;14.80;35.60
2751;DHT22;1383;48.362;10.908;2023-06-04T03:11:34;14.70;35.50
2751;DHT22;1383;48.362;10.908;2023-06-04T03:14:00;14.70;35.40
2751;DHT22;1383;48.362;10.908;2023-06-04T03:16:27;14.70;35.80
2751;DHT22;1383;48.362;10.908;2023-06-04T03:18:54;14.60;35.90
2751;DHT22;1383;48.362;10.908;2023-06-04T03:21:22;14.40;36.10
2751;DHT22;1383;48.362;10.908;2023-06-04T03:23:49;14.40;36.30
2751;DHT22;1383;48.362;10.908;2023-06-04T03:26:15;14.30;36.20
2751;DHT22;1383;48.362;10.908;2023-06-04T03:28:42;14.30;36.10
2751;DHT22;1383;48.362;10.908;2023-06-04T03:31:09;14.30;36.10
2751;DHT22;1383;48.362;10.908;2023-06-04T03:33:36;14.30;36.60
2751;DHT22;1383;48.362;10.908;2023-06-04T03:36:03;14.20;36.70
2751;DHT22;1383;48.362;10.908;2023-06-04T03:38:30;14.30;36.80
2751;DHT22;1383;48.362;10.908;2023-06-04T03:40:57;14.40;36.80
2751;DHT22;1383;48.362;10.908;2023-06-04T03:43:24;14.30;36.30
2751;DHT22;1383;48.362;10.908;2023-06-04T03:45:51;14.20;36.10
2751;DHT22;1383;48.362;10.908;2023-06-04T03:48:18;14.00;36.20
2751;DHT22;1383;48.362;10.908;2023-06-04T03:50:44;14.10;36.60
2751;DHT22;1383;48.362;10.908;2023-06-04T03:53:12;14.20;36.10
2751;DHT22;1383;48.362;10.908;2023-06-04T03:55:39;14.10;36.10
2751;DHT22;1383;48.362;10.908;2023-06-04T03:58:06;14.00;36.20
2751;DHT22;1383;48.362;10.908;2023-06-04T04:00:36;14.00;36.10
2751;DHT22;1383;48.362;10.908;2023-06-04T04:03:03;14.00;36.20
2751;DHT22;1383;48.362;10.908;2023-06-04T04:05:31;14.10;36.20
2751;DHT22;1383;48.362;10.908;2023-06-04T04:07:58;14.30;36.40
2751;DHT22;1383;48.362;10.908;2023-06-04T04:10:25;14.20;34.80
2751;DHT22;1383;48.362;10.908;2023-06-04T04:12:52;14.10;34.80
2751;DHT22;1383;48.362;10.908;2023-06-04T04:15:20;14.10;34.60
2751;DHT22;1383;48.362;10.908;2023-06-04T04:17:47;14.00;34.60
2751;DHT22;1383;48.362;10.908;2023-06-04T04:20:13;13.90;34.70
2751;DHT22;1383;48.362;10.908;2023-06-04T04:22:41;13.90;34.90
2751;DHT22;1383;48.362;10.908;2023-06-04T04:25:09;14.00;35.10
2751;DHT22;1383;48.362;10.908;2023-06-04T04:27:37;14.10;35.30
2751;DHT22;1383;48.362;10.908;2023-06-04T04:30:07;14.30;34.90
2751;DHT22;1383;48.362;10.908;2023-06-04T04:32:34;14.40;34.50
2751;DHT22;1383;48.362;10.908;2023-06-04T04:35:01;14.30;34.20
2751;DHT22;1383;48.362;10.908;2023-06-04T04:37:27;14.40;34.60
2751;DHT22;1383;48.362;10.908;2023-06-04T04:39:54;14.40;33.90
2751;DHT22;1383;48.362;10.908;2023-06-04T04:42:21;14.50;34.00
2751;DHT22;1383;48.362;10.908;2023-06-04T04:44:49;14.60;33.80
2751;DHT22;1383;48.362;10.908;2023-06-04T04:47:16;14.60;33.30
2751;DHT22;1383;48.362;10.908;2023-06-04T04:49:43;14.50;33.80
2751;DHT22;1383;48.362;10.908;2023-06-04T04:52:11;14.50;33.70
2751;DHT22;1383;48.362;10.908;2023-06-04T04:54:37;14.50;33.80
2751;DHT22;1383;48.362;10.908;2023-06-04T04:57:04;14.60;34.00
2751;DHT22;1383;48.362;10.908;2023-06-04T04:59:40;14.60;33.40
2751;DHT22;1383;48.362;10.908;2023-06-04T05:02:06;14.70;33.80
2751;DHT22;1383;48.362;10.908;2023-06-04T05:04:33;14.80;33.50
2751;DHT22;1383;48.362;10.908;2023-06-04T05:07:00;14.80;33.50
2751;DHT22;1383;48.362;10.908;2023-06-04T05:09:27;14.80;33.50
2751;DHT22;1383;48.362;10.908;2023-06-04T05:11:54;15.00;32.90
2751;DHT22;1383;48.362;10.908;2023-06-04T05:14:21;15.10;32.60
2751;DHT22;1383;48.362;10.908;2023-06-04T05:16:47;15.40;32.20
2751;DHT22;1383;48.362;10.908;2023-06-04T05:19:16;15.40;32.20
2751;DHT22;1383;48.362;10.908;2023-06-04T05:21:43;15.50;31.50
2751;DHT22;1383;48.362;10.908;2023-06-04T05:24:10;15.80;31.30
2751;DHT22;1383;48.362;10.908;2023-06-04T05:26:37;16.00;30.70
2751;DHT22;1383;48.362;10.908;2023-06-04T05:29:06;16.50;30.70
2751;DHT22;1383;48.362;10.908;2023-06-04T05:31:34;16.80;29.30
2751;DHT22;1383;48.362;10.908;2023-06-04T05:34:02;16.70;29.50
2751;DHT22;1383;48.362;10.908;2023-06-04T05:36:31;17.10;29.30
2751;DHT22;1383;48.362;10.908;2023-06-04T05:38:58;17.60;28.80
2751;DHT22;1383;48.362;10.908;2023-06-04T05:41:27;17.40;27.80
2751;DHT22;1383;48.362;10.908;2023-06-04T05:43:54;17.50;28.50
2751;DHT22;1383;48.362;10.908;2023-06-04T05:46:21;18.10;27.80
2751;DHT22;1383;48.362;10.908;2023-06-04T05:48:49;18.20;27.10
2751;DHT22;1383;48.362;10.908;2023-06-04T05:51:17;18.10;26.70
2751;DHT22;1383;48.362;10.908;2023-06-04T05:53:44;18.10;26.80
2751;DHT22;1383;48.362;10.908;2023-06-04T05:56:11;17.90;26.80
2751;DHT22;1383;48.362;10.908;2023-06-04T05:58:38;17.90;26.80
2751;DHT22;1383;48.362;10.908;2023-06-04T06:01:05;18.00;26.70
2751;DHT22;1383;48.362;10.908;2023-06-04T06:03:32;17.90;27.00
2751;DHT22;1383;48.362;10.908;2023-06-04T06:05:59;18.00;27.10
2751;DHT22;1383;48.362;10.908;2023-06-04T06:08:27;18.70;26.60
2751;DHT22;1383;48.362;10.908;2023-06-04T06:10:54;19.20;26.10
2751;DHT22;1383;48.362;10.908;2023-06-04T06:13:21;18.90;25.50
2751;DHT22;1383;48.362;10.908;2023-06-04T06:15:48;19.40;25.80
2751;DHT22;1383;48.362;10.908;2023-06-04T06:18:15;20.00;24.20
2751;DHT22;1383;48.362;10.908;2023-06-04T06:20:42;19.80;24.40
2751;DHT22;1383;48.362;10.908;2023-06-04T06:23:09;20.20;24.70
2751;DHT22;1383;48.362;10.908;2023-06-04T06:25:36;20.70;23.90
2751;DHT22;1383;48.362;10.908;2023-06-04T06:28:03;21.10;22.90
2751;DHT22;1383;48.362;10.908;2023-06-04T06:30:29;21.00;23.20
2751;DHT22;1383;48.362;10.908;2023-06-04T06:32:56;21.40;22.70
2751;DHT22;1383;48.362;10.908;2023-06-04T06:35:24;21.00;22.60
2751;DHT22;1383;48.362;10.908;2023-06-04T06:37:51;20.90;22.80
2751;DHT22;1383;48.362;10.908;2023-06-04T06:40:19;20.10;23.30
2751;DHT22;1383;48.362;10.908;2023-06-04T06:42:49;19.90;24.30
2751;DHT22;1383;48.362;10.908;2023-06-04T06:45:18;20.10;24.30
2751;DHT22;1383;48.362;10.908;2023-06-04T06:47:45;19.80;24.20
2751;DHT22;1383;48.362;10.908;2023-06-04T06:50:12;20.30;24.70
2751;DHT22;1383;48.362;10.908;2023-06-04T06:52:39;20.80;24.30
2751;DHT22;1383;48.362;10.908;2023-06-04T06:55:06;21.00;23.40
2751;DHT22;1383;48.362;10.908;2023-06-04T06:57:33;21.40;23.60
2751;DHT22;1383;48.362;10.908;2023-06-04T07:00:00;21.20;23.40
2751;DHT22;1383;48.362;10.908;2023-06-04T07:02:27;21.60;22.50
2751;DHT22;1383;48.362;10.908;2023-06-04T07:04:55;21.50;22.40
2751;DHT22;1383;48.362;10.908;2023-06-04T07:07:22;21.90;22.90
2751;DHT22;1383;48.362;10.908;2023-06-04T07:09:49;22.40;22.90
2751;DHT22;1383;48.362;10.908;2023-06-04T07:12:16;23.10;21.90
2751;DHT22;1383;48.362;10.908;2023-06-04T07:14:43;22.90;21.10
2751;DHT22;1383;48.362;10.908;2023-06-04T07:17:10;23.40;20.80
2751;DHT22;1383;48.362;10.908;2023-06-04T07:19:37;23.40;20.30
2751;DHT22;1383;48.362;10.908;2023-06-04T07:22:04;23.40;20.50
2751;DHT22;1383;48.362;10.908;2023-06-04T07:24:31;23.40;20.20
2751;DHT22;1383;48.362;10.908;2023-06-04T07:26:58;23.00;20.50
2751;DHT22;1383;48.362;10.908;2023-06-04T07:29:28;23.20;20.00
2751;DHT22;1383;48.362;10.908;2023-06-04T07:31:55;23.60;19.90
2751;DHT22;1383;48.362;10.908;2023-06-04T07:34:22;23.90;20.00
2751;DHT22;1383;48.362;10.908;2023-06-04T07:36:49;23.90;19.80
2751;DHT22;1383;48.362;10.908;2023-06-04T07:39:15;24.10;20.00
2751;DHT22;1383;48.362;10.908;2023-06-04T07:41:42;24.50;19.70
2751;DHT22;1383;48.362;10.908;2023-06-04T07:44:09;24.80;18.60
2751;DHT22;1383;48.362;10.908;2023-06-04T07:46:36;23.90;19.10
2751;DHT22;1383;48.362;10.908;2023-06-04T07:49:03;24.20;19.00
2751;DHT22;1383;48.362;10.908;2023-06-04T07:51:30;24.20;18.60
2751;DHT22;1383;48.362;10.908;2023-06-04T07:53:57;24.30;19.60
2751;DHT22;1383;48.362;10.908;2023-06-04T07:56:24;24.50;18.70
2751;DHT22;1383;48.362;10.908;2023-06-04T07:58:52;23.90;18.90
2751;DHT22;1383;48.362;10.908;2023-06-04T08:01:19;23.30;19.70
2751;DHT22;1383;48.362;10.908;2023-06-04T08:03:46;23.60;20.20
2751;DHT22;1383;48.362;10.908;2023-06-04T08:06:13;22.90;19.80
2751;DHT22;1383;48.362;10.908;2023-06-04T08:08:44;23.60;20.00
2751;DHT22;1383;48.362;10.908;2023-06-04T08:11:12;24.30;19.80
2751;DHT22;1383;48.362;10.908;2023-06-04T08:13:40;24.70;19.40
2751;DHT22;1383;48.362;10.908;2023-06-04T08:16:08;24.90;18.20
2751;DHT22;1383;48.362;10.908;2023-06-04T08:18:40;24.80;18.10
2751;DHT22;1383;48.362;10.908;2023-06-04T08:21:09;23.80;18.60
2751;DHT22;1383;48.362;10.908;2023-06-04T08:23:37;24.00;19.30
2751;DHT22;1383;48.362;10.908;2023-06-04T08:26:04;23.70;18.80
2751;DHT22;1383;48.362;10.908;2023-06-04T08:28:34;23.40;19.80
2751;DHT22;1383;48.362;10.908;2023-06-04T08:31:01;24.00;19.80
2751;DHT22;1383;48.362;10.908;2023-06-04T08:33:28;24.50;18.40
2751;DHT22;1383;48.362;10.908;2023-06-04T08:36:01;24.80;18.40
2751;DHT22;1383;48.362;10.908;2023-06-04T08:38:28;25.00;18.50
2751;DHT22;1383;48.362;10.908;2023-06-04T08:40:58;25.10;17.00
2751;DHT22;1383;48.362;10.908;2023-06-04T08:43:29;25.20;18.00
2751;DHT22;1383;48.362;10.908;2023-06-04T08:45:59;25.10;17.40
2751;DHT22;1383;48.362;10.908;2023-06-04T08:48:28;24.90;18.00
2751;DHT22;1383;48.362;10.908;2023-06-04T08:50:57;25.00;17.50
2751;DHT22;1383;48.362;10.908;2023-06-04T08:53:26;25.00;17.80
2751;DHT22;1383;48.362;10.908;2023-06-04T08:55:53;25.00;17.60
2751;DHT22;1383;48.362;10.908;2023-06-04T08:58:21;25.00;17.80
2751;DHT22;1383;48.362;10.908;2023-06-04T09:00:48;25.00;17.60
2751;DHT22;1383;48.362;10.908;2023-06-04T09:03:15;24.40;17.30
2751;DHT22;1383;48.362;10.908;2023-06-04T09:05:44;24.40;18.10
2751;DHT22;1383;48.362;10.908;2023-06-04T09:08:17;24.70;17.60
2751;DHT22;1383;48.362;10.908;2023-06-04T09:10:44;24.80;17.30
2751;DHT22;1383;48.362;10.908;2023-06-04T09:13:14;24.70;17.50
2751;DHT22;1383;48.362;10.908;2023-06-04T09:15:42;24.40;18.40
2751;DHT22;1383;48.362;10.908;2023-06-04T09:18:09;24.70;17.70
2751;DHT22;1383;48.362;10.908;2023-06-04T09:20:36;25.20;17.50
2751;DHT22;1383;48.362;10.908;2023-06-04T09:23:13;25.60;17.20
2751;DHT22;1383;48.362;10.908;2023-06-04T09:25:42;25.10;16.70
2751;DHT22;1383;48.362;10.908;2023-06-04T09:28:10;24.80;17.50
2751;DHT22;1383;48.362;10.908;2023-06-04T09:30:37;24.80;17.20
2751;DHT22;1383;48.362;10.908;2023-06-04T09:33:09;24.90;17.40
2751;DHT22;1383;48.362;10.908;2023-06-04T09:35:36;25.10;16.90
2751;DHT22;1383;48.362;10.908;2023-06-04T09:38:05;25.00;17.10
2751;DHT22;1383;48.362;10.908;2023-06-04T09:40:36;24.60;16.60
2751;DHT22;1383;48.362;10.908;2023-06-04T09:43:04;24.90;17.20
2751;DHT22;1383;48.362;10.908;2023-06-04T09:45:35;25.10;16.40
2751;DHT22;1383;48.362;10.908;2023-06-04T09:48:03;25.50;16.00
2751;DHT22;1383;48.362;10.908;2023-06-04T09:50:35;25.10;16.80
2751;DHT22;1383;48.362;10.908;2023-06-04T09:53:15;25.60;16.60
2751;DHT22;1383;48.362;10.908;2023-06-04T09:55:43;25.80;16.10
2751;DHT22;1383;48.362;10.908;2023-06-04T09:58:10;26.10;15.50
2751;DHT22;1383;48.362;10.908;2023-06-04T10:00:39;25.70;16.50
2751;DHT22;1383;48.362;10.908;2023-06-04T10:03:07;26.00;15.40
2751;DHT22;1383;48.362;10.908;2023-06-04T10:05:36;26.10;16.00
2751;DHT22;1383;48.362;10.908;2023-06-04T10:08:04;25.90;15.10
2751;DHT22;1383;48.362;10.908;2023-06-04T10:10:35;25.20;16.30
2751;DHT22;1383;48.362;10.908;2023-06-04T10:13:17;25.60;16.70
2751;DHT22;1383;48.362;10.908;2023-06-04T10:15:46;26.60;15.80
2751;DHT22;1383;48.362;10.908;2023-06-04T10:18:16;26.40;14.60
2751;DHT22;1383;48.362;10.908;2023-06-04T10:20:43;26.40;15.10
2751;DHT22;1383;48.362;10.908;2023-06-04T10:23:10;26.50;14.60
2751;DHT22;1383;48.362;10.908;2023-06-04T10:25:37;26.50;14.60
2751;DHT22;1383;48.362;10.908;2023-06-04T10:28:04;26.80;15.40
2751;DHT22;1383;48.362;10.908;2023-06-04T10:30:31;26.70;13.90
2751;DHT22;1383;48.362;10.908;2023-06-04T10:32:59;27.10;14.40
2751;DHT22;1383;48.362;10.908;2023-06-04T10:35:33;27.50;13.50
2751;DHT22;1383;48.362;10.908;2023-06-04T10:38:18;27.30;13.60
2751;DHT22;1383;48.362;10.908;2023-06-04T10:40:47;27.50;13.40
2751;DHT22;1383;48.362;10.908;2023-06-04T10:43:15;27.30;13.70
2751;DHT22;1383;48.362;10.908;2023-06-04T10:45:45;27.00;13.10
2751;DHT22;1383;48.362;10.908;2023-06-04T10:48:12;27.10;13.40
2751;DHT22;1383;48.362;10.908;2023-06-04T10:50:51;26.40;13.60
2751;DHT22;1383;48.362;10.908;2023-06-04T10:53:19;26.10;14.30
2751;DHT22;1383;48.362;10.908;2023-06-04T10:55:47;25.40;15.20
2751;DHT22;1383;48.362;10.908;2023-06-04T10:58:15;25.40;15.60
2751;DHT22;1383;48.362;10.908;2023-06-04T11:00:44;25.60;15.80
2751;DHT22;1383;48.362;10.908;2023-06-04T11:03:16;24.50;15.70
2751;DHT22;1383;48.362;10.908;2023-06-04T11:05:45;24.20;16.60
2751;DHT22;1383;48.362;10.908;2023-06-04T11:08:13;24.10;16.30
2751;DHT22;1383;48.362;10.908;2023-06-04T11:10:45;23.90;16.20
2751;DHT22;1383;48.362;10.908;2023-06-04T11:13:12;23.90;16.70
2751;DHT22;1383;48.362;10.908;2023-06-04T11:15:46;24.10;16.10
2751;DHT22;1383;48.362;10.908;2023-06-04T11:18:20;24.10;16.80
2751;DHT22;1383;48.362;10.908;2023-06-04T11:20:48;24.00;16.50
2751;DHT22;1383;48.362;10.908;2023-06-04T11:23:16;23.90;16.60
2751;DHT22;1383;48.362;10.908;2023-06-04T11:25:44;23.80;15.40
2751;DHT22;1383;48.362;10.908;2023-06-04T11:28:16;23.60;16.10
2751;DHT22;1383;48.362;10.908;2023-06-04T11:31:12;23.80;16.00
2751;DHT22;1383;48.362;10.908;2023-06-04T11:33:46;24.10;15.20
2751;DHT22;1383;48.362;10.908;2023-06-04T11:39:03;23.70;16.30
2751;DHT22;1383;48.362;10.908;2023-06-04T11:41:35;23.70;16.70
2751;DHT22;1383;48.362;10.908;2023-06-04T11:44:05;23.30;16.60
2751;DHT22;1383;48.362;10.908;2023-06-04T11:46:39;23.10;16.80
2751;DHT22;1383;48.362;10.908;2023-06-04T11:49:06;23.10;16.60
2751;DHT22;1383;48.362;10.908;2023-06-04T11:51:33;23.20;16.60
2751;DHT22;1383;48.362;10.908;2023-06-04T11:54:01;23.30;16.50
2751;DHT22;1383;48.362;10.908;2023-06-04T11:56:28;23.50;16.00
2751;DHT22;1383;48.362;10.908;2023-06-04T11:58:55;23.30;15.70
2751;DHT22;1383;48.362;10.908;2023-06-04T12:01:22;23.60;15.80
2751;DHT22;1383;48.362;10.908;2023-06-04T12:03:51;23.50;16.10
2751;DHT22;1383;48.362;10.908;2023-06-04T12:06:19;23.60;16.00
2751;DHT22;1383;48.362;10.908;2023-06-04T12:08:53;23.60;16.00
2751;DHT22;1383;48.362;10.908;2023-06-04T12:11:28;23.50;15.90
2751;DHT22;1383;48.362;10.908;2023-06-04T12:13:56;23.40;16.20
2751;DHT22;1383;48.362;10.908;2023-06-04T12:16:23;23.40;16.10
2751;DHT22;1383;48.362;10.908;2023-06-04T12:18:50;23.30;15.80
2751;DHT22;1383;48.362;10.908;2023-06-04T12:21:24;23.30;16.20
2751;DHT22;1383;48.362;10.908;2023-06-04T12:24:09;23.50;15.30
2751;DHT22;1383;48.362;10.908;2023-06-04T12:26:37;23.60;15.20
2751;DHT22;1383;48.362;10.908;2023-06-04T12:29:17;23.80;15.00
2751;DHT22;1383;48.362;10.908;2023-06-04T12:31:46;24.00;15.50
2751;DHT22;1383;48.362;10.908;2023-06-04T12:34:14;24.30;15.30
2751;DHT22;1383;48.362;10.908;2023-06-04T12:36:40;24.00;14.50
2751;DHT22;1383;48.362;10.908;2023-06-04T12:39:07;23.90;15.10
2751;DHT22;1383;48.362;10.908;2023-06-04T12:41:35;24.10;14.60
2751;DHT22;1383;48.362;10.908;2023-06-04T12:44:02;24.10;15.00
2751;DHT22;1383;48.362;10.908;2023-06-04T12:46:29;24.30;15.20
2751;DHT22;1383;48.362;10.908;2023-06-04T12:48:56;24.40;14.40
2751;DHT22;1383;48.362;10.908;2023-06-04T12:51:23;24.10;14.00
2751;DHT22;1383;48.362;10.908;2023-06-04T12:53:50;24.00;14.90
2751;DHT22;1383;48.362;10.908;2023-06-04T12:56:18;23.90;14.90
2751;DHT22;1383;48.362;10.908;2023-06-04T12:58:45;24.00;14.90
2751;DHT22;1383;48.362;10.908;2023-06-04T13:01:12;23.70;15.70
2751;DHT22;1383;48.362;10.908;2023-06-04T13:03:40;23.80;16.10
2751;DHT22;1383;48.362;10.908;2023-06-04T13:06:07;24.10;15.40
2751;DHT22;1383;48.362;10.908;2023-06-04T13:08:34;24.20;14.60
2751;DHT22;1383;48.362;10.908;2023-06-04T13:11:01;24.20;14.80
2751;DHT22;1383;48.362;10.908;2023-06-04T13:13:28;24.30;15.20
2751;DHT22;1383;48.362;10.908;2023-06-04T13:15:56;24.40;14.10
2751;DHT22;1383;48.362;10.908;2023-06-04T13:18:23;24.40;14.40
2751;DHT22;1383;48.362;10.908;2023-06-04T13:20:50;24.20;14.20
2751;DHT22;1383;48.362;10.908;2023-06-04T13:23:17;24.20;14.30
2751;DHT22;1383;48.362;10.908;2023-06-04T13:25:44;24.10;14.30
2751;DHT22;1383;48.362;10.908;2023-06-04T13:28:11;24.10;15.00
2751;DHT22;1383;48.362;10.908;2023-06-04T13:30:38;24.00;15.80
2751;DHT22;1383;48.362;10.908;2023-06-04T13:33:06;24.00;15.20
2751;DHT22;1383;48.362;10.908;2023-06-04T13:35:33;24.10;15.00
2751;DHT22;1383;48.362;10.908;2023-06-04T13:38:03;24.20;14.60
2751;DHT22;1383;48.362;10.908;2023-06-04T13:40:30;24.10;14.60
2751;DHT22;1383;48.362;10.908;2023-06-04T13:42:57;23.90;15.10
2751;DHT22;1383;48.362;10.908;2023-06-04T13:45:24;24.00;14.90
2751;DHT22;1383;48.362;10.908;2023-06-04T13:47:51;24.30;15.10
2751;DHT22;1383;48.362;10.908;2023-06-04T13:50:21;24.20;14.70
2751;DHT22;1383;48.362;10.908;2023-06-04T13:52:47;24.40;14.40
2751;DHT22;1383;48.362;10.908;2023-06-04T13:55:14;24.50;14.30
2751;DHT22;1383;48.362;10.908;2023-06-04T13:57:41;24.30;14.10
2751;DHT22;1383;48.362;10.908;2023-06-04T14:00:08;24.40;14.70
2751;DHT22;1383;48.362;10.908;2023-06-04T14:02:36;24.60;14.60
2751;DHT22;1383;48.362;10.908;2023-06-04T14:05:04;24.40;14.40
2751;DHT22;1383;48.362;10.908;2023-06-04T14:07:32;24.30;14.50
2751;DHT22;1383;48.362;10.908;2023-06-04T14:09:59;24.20;14.90
2751;DHT22;1383;48.362;10.908;2023-06-04T14:12:26;24.30;14.60
2751;DHT22;1383;48.362;10.908;2023-06-04T14:14:52;24.50;15.10
2751;DHT22;1383;48.362;10.908;2023-06-04T14:17:19;24.50;14.70
2751;DHT22;1383;48.362;10.908;2023-06-04T14:19:47;24.30;14.60
2751;DHT22;1383;48.362;10.908;2023-06-04T14:22:13;24.10;14.60
2751;DHT22;1383;48.362;10.908;2023-06-04T14:24:41;24.30;15.00
2751;DHT22;1383;48.362;10.908;2023-06-04T14:27:08;24.40;14.70
2751;DHT22;1383;48.362;10.908;2023-06-04T14:29:36;24.30;14.90
2751;DHT22;1383;48.362;10.908;2023-06-04T14:32:06;24.30;14.40
2751;DHT22;1383;48.362;10.908;2023-06-04T14:34:34;24.50;14.20
2751;DHT22;1383;48.362;10.908;2023-06-04T14:37:01;24.60;14.50
2751;DHT22;1383;48.362;10.908;2023-06-04T14:39:28;24.70;14.10
2751;DHT22;1383;48.362;10.908;2023-06-04T14:41:55;24.80;14.60
2751;DHT22;1383;48.362;10.908;2023-06-04T14:44:22;24.40;14.10
2751;DHT22;1383;48.362;10.908;2023-06-04T14:46:49;24.50;14.00
2751;DHT22;1383;48.362;10.908;2023-06-04T14:49:17;24.70;14.20
2751;DHT22;1383;48.362;10.908;2023-06-04T14:51:45;24.80;14.50
2751;DHT22;1383;48.362;10.908;2023-06-04T14:54:12;24.60;13.90
2751;DHT22;1383;48.362;10.908;2023-06-04T14:56:39;24.50;14.20
2751;DHT22;1383;48.362;10.908;2023-06-04T14:59:06;24.50;14.50
2751;DHT22;1383;48.362;10.908;2023-06-04T15:01:35;24.50;14.90
2751;DHT22;1383;48.362;10.908;2023-06-04T15:04:04;24.50;14.70
2751;DHT22;1383;48.362;10.908;2023-06-04T15:06:31;24.60;14.90
2751;DHT22;1383;48.362;10.908;2023-06-04T15:08:58;24.50;14.70
2751;DHT22;1383;48.362;10.908;2023-06-04T15:11:25;24.50;14.60
2751;DHT22;1383;48.362;10.908;2023-06-04T15:13:55;24.50;14.90
2751;DHT22;1383;48.362;10.908;2023-06-04T15:16:22;24.50;14.40
2751;DHT22;1383;48.362;10.908;2023-06-04T15:18:48;24.40;14.60
2751;DHT22;1383;48.362;10.908;2023-06-04T15:21:16;24.50;15.00
2751;DHT22;1383;48.362;10.908;2023-06-04T15:23:43;24.40;14.80
2751;DHT22;1383;48.362;10.908;2023-06-04T15:26:16;24.50;14.20
2751;DHT22;1383;48.362;10.908;2023-06-04T15:28:43;24.60;14.70
2751;DHT22;1383;48.362;10.908;2023-06-04T15:31:10;24.60;14.10
2751;DHT22;1383;48.362;10.908;2023-06-04T15:33:37;24.40;14.30
2751;DHT22;1383;48.362;10.908;2023-06-04T15:36:04;24.30;14.60
2751;DHT22;1383;48.362;10.908;2023-06-04T15:38:31;24.40;15.00
2751;DHT22;1383;48.362;10.908;2023-06-04T15:40:59;24.50;15.10
2751;DHT22;1383;48.362;10.908;2023-06-04T15:43:26;24.20;14.10
2751;DHT22;1383;48.362;10.908;2023-06-04T15:45:53;24.10;14.70
2751;DHT22;1383;48.362;10.908;2023-06-04T15:48:20;24.00;15.00
2751;DHT22;1383;48.362;10.908;2023-06-04T15:50:48;24.20;15.20
2751;DHT22;1383;48.362;10.908;2023-06-04T15:53:15;24.10;15.60
2751;DHT22;1383;48.362;10.908;2023-06-04T15:55:42;24.20;16.00
2751;DHT22;1383;48.362;10.908;2023-06-04T15:58:08;24.20;15.90
2751;DHT22;1383;48.362;10.908;2023-06-04T16:00:35;24.00;15.20
2751;DHT22;1383;48.362;10.908;2023-06-04T16:03:02;23.90;15.50